createdAt,value
2022-09-07T00:02:05.400Z,19.75
2022-09-07T00:04:36.828Z,19.52
2022-09-07T00:07:04.293Z,19.51
2022-09-07T00:12:01.986Z,19.84
2022-09-07T00:14:49.712Z,19.83
2022-09-07T00:17:28.243Z,19.59
2022-09-07T00:19:57.478Z,19.62
2022-09-07T00:22:28.399Z,19.60
2022-09-07T00:24:58.727Z,19.75
2022-09-07T00:27:31.683Z,19.56
2022-09-07T00:30:02.451Z,19.60
2022-09-07T00:32:29.574Z,19.61
2022-09-07T00:34:56.634Z,19.60
2022-09-07T00:37:26.219Z,19.66
2022-09-07T00:39:53.449Z,19.81
2022-09-07T00:42:22.169Z,19.90
2022-09-07T00:45:12.878Z,19.45
2022-09-07T00:47:46.183Z,19.52
2022-09-07T00:50:44.615Z,19.42
2022-09-07T00:53:49.616Z,19.42
2022-09-07T00:56:16.607Z,19.39
2022-09-07T00:58:44.374Z,19.53
2022-09-07T01:01:12.050Z,19.57
2022-09-07T01:03:50.082Z,19.57
2022-09-07T01:06:22.898Z,19.27
2022-09-07T01:08:53.442Z,19.17
2022-09-07T01:11:22.760Z,19.44
2022-09-07T01:13:53.146Z,19.51
2022-09-07T01:16:51.840Z,19.15
2022-09-07T01:19:27.423Z,19.08
2022-09-07T01:22:12.409Z,19.25
2022-09-07T01:25:05.493Z,19.44
2022-09-07T01:28:05.845Z,19.50
2022-09-07T01:30:38.824Z,19.40
2022-09-07T01:33:57.332Z,19.58
2022-09-07T01:36:34.093Z,19.34
2022-09-07T01:39:04.571Z,19.36
2022-09-07T01:41:58.839Z,19.37
2022-09-07T01:44:36.238Z,19.15
2022-09-07T01:47:15.531Z,19.16
2022-09-07T01:50:05.376Z,19.25
2022-09-07T01:52:42.427Z,19.11
2022-09-07T01:55:34.027Z,19.11
2022-09-07T01:58:11.896Z,19.13
2022-09-07T02:00:46.147Z,18.99
2022-09-07T02:03:34.013Z,19.04
2022-09-07T02:06:29.403Z,19.20
2022-09-07T02:09:03.540Z,19.17
2022-09-07T02:11:38.675Z,19.38
2022-09-07T02:14:37.293Z,18.98
2022-09-07T02:17:09.101Z,19.03
2022-09-07T02:19:43.243Z,19.22
2022-09-07T02:22:17.147Z,19.16
2022-09-07T02:24:50.980Z,19.26
2022-09-07T02:27:24.933Z,19.47
2022-09-07T02:29:52.206Z,19.53
2022-09-07T02:32:19.307Z,19.72
2022-09-07T02:34:46.384Z,19.78
2022-09-07T02:37:16.404Z,19.61
2022-09-07T02:39:43.350Z,19.58
2022-09-07T02:42:10.281Z,19.57
2022-09-07T02:44:41.879Z,19.17
2022-09-07T02:47:48.562Z,19.10
2022-09-07T02:50:46.162Z,19.19
2022-09-07T02:53:52.620Z,19.28
2022-09-07T02:56:40.601Z,19.17
2022-09-07T02:59:35.198Z,19.23
2022-09-07T03:02:14.197Z,19.18
2022-09-07T03:05:00.858Z,18.82
2022-09-07T03:07:51.467Z,19.07
2022-09-07T03:10:21.717Z,19.21
2022-09-07T03:12:50.913Z,19.40
2022-09-07T03:15:26.385Z,19.38
2022-09-07T03:17:53.731Z,19.64
2022-09-07T03:20:22.824Z,19.55
2022-09-07T03:22:51.517Z,19.62
2022-09-07T03:25:19.633Z,19.80
2022-09-07T03:27:46.582Z,19.93
2022-09-07T03:30:14.205Z,20.11
2022-09-07T03:32:43.422Z,20.26
2022-09-07T03:35:11.329Z,20.02
2022-09-07T03:37:40.954Z,19.83
2022-09-07T03:40:10.984Z,19.96
2022-09-07T03:42:38.579Z,20.03
2022-09-07T03:45:10.118Z,19.89
2022-09-07T03:47:40.075Z,19.91
2022-09-07T03:50:12.456Z,19.87
2022-09-07T03:52:39.518Z,19.79
2022-09-07T03:55:09.391Z,19.80
2022-09-07T03:57:36.517Z,19.56
2022-09-07T04:00:05.668Z,19.28
2022-09-07T04:02:32.659Z,19.24
2022-09-07T04:04:59.604Z,18.95
2022-09-07T04:07:28.755Z,18.86
2022-09-07T04:09:55.772Z,18.97
2022-09-07T04:12:29.801Z,18.89
2022-09-07T04:14:58.898Z,18.73
2022-09-07T04:17:30.491Z,18.82
2022-09-07T04:19:57.411Z,18.91
2022-09-07T04:22:24.281Z,18.92
2022-09-07T04:24:53.408Z,19.16
2022-09-07T04:27:20.267Z,19.28
2022-09-07T04:29:50.310Z,19.23
2022-09-07T04:32:17.272Z,19.10
2022-09-07T04:34:51.961Z,18.60
2022-09-07T04:37:21.311Z,18.78
2022-09-07T04:39:49.427Z,18.73
2022-09-07T04:42:16.382Z,19.02
2022-09-07T04:44:43.386Z,18.66
2022-09-07T04:47:12.491Z,18.71
2022-09-07T04:49:42.049Z,18.82
2022-09-07T04:52:08.956Z,19.02
2022-09-07T04:54:35.958Z,19.21
2022-09-07T04:57:02.872Z,19.10
2022-09-07T04:59:32.336Z,19.03
2022-09-07T05:02:04.291Z,19.22
2022-09-07T05:04:31.228Z,19.13
2022-09-07T05:07:00.423Z,18.77
2022-09-07T05:09:29.917Z,18.66
2022-09-07T05:11:59.446Z,18.75
2022-09-07T05:14:26.528Z,18.79
2022-09-07T05:16:53.519Z,18.86
2022-09-07T05:19:20.490Z,18.83
2022-09-07T05:21:47.398Z,18.86
2022-09-07T05:24:14.441Z,18.98
2022-09-07T05:26:41.429Z,19.24
2022-09-07T05:31:58.617Z,19.02
2022-09-07T05:34:29.074Z,18.99
2022-09-07T05:36:58.098Z,19.07
2022-09-07T05:39:25.653Z,19.19
2022-09-07T05:41:52.623Z,19.29
2022-09-07T05:47:11.797Z,19.75
2022-09-07T05:49:41.270Z,19.39
2022-09-07T05:52:08.357Z,19.47
2022-09-07T05:54:37.895Z,19.70
2022-09-07T05:57:10.252Z,19.81
2022-09-07T05:59:40.198Z,19.89
2022-09-07T06:02:15.708Z,19.97
2022-09-07T06:04:45.765Z,19.82
2022-09-07T06:07:22.486Z,19.74
2022-09-07T06:12:37.282Z,19.87
2022-09-07T06:15:06.996Z,19.83
2022-09-07T06:17:33.994Z,19.75
2022-09-07T06:20:04.632Z,19.91
2022-09-07T06:22:31.516Z,19.68
2022-09-07T06:25:01.521Z,19.42
2022-09-07T06:27:28.778Z,19.59
2022-09-07T06:30:00.656Z,19.64
2022-09-07T06:32:43.304Z,19.61
2022-09-07T06:35:11.411Z,19.52
2022-09-07T06:37:38.774Z,19.54
2022-09-07T06:40:08.959Z,19.45
2022-09-07T06:42:36.007Z,19.61
2022-09-07T06:45:05.970Z,19.60
2022-09-07T06:47:32.917Z,19.80
2022-09-07T06:50:02.455Z,19.84
2022-09-07T06:52:29.394Z,19.63
2022-09-07T06:57:27.933Z,19.53
2022-09-07T06:59:59.360Z,19.38
2022-09-07T07:02:26.304Z,19.45
2022-09-07T07:04:55.455Z,19.46
2022-09-07T07:07:24.520Z,19.55
2022-09-07T07:09:51.481Z,19.49
2022-09-07T07:14:49.037Z,19.67
2022-09-07T07:17:18.187Z,19.68
2022-09-07T07:19:45.147Z,19.49
2022-09-07T07:22:57.367Z,18.97
2022-09-07T07:25:02.542Z,18.53
2022-09-07T07:27:31.574Z,19.04
2022-09-07T07:29:58.505Z,19.28
2022-09-07T07:32:25.738Z,19.48
2022-09-07T07:34:57.139Z,19.33
2022-09-07T07:37:28.036Z,19.42
2022-09-07T07:42:42.911Z,19.87
2022-09-07T07:47:58.477Z,19.84
2022-09-07T07:50:31.428Z,19.94
2022-09-07T07:55:46.234Z,20.08
2022-09-07T07:58:13.116Z,20.13
2022-09-07T08:00:53.751Z,19.59
2022-09-07T08:03:27.497Z,19.12
2022-09-07T08:05:57.197Z,19.29
2022-09-07T08:08:24.611Z,19.38
2022-09-07T08:10:53.975Z,19.45
2022-09-07T08:13:21.529Z,19.48
2022-09-07T08:15:48.798Z,19.22
2022-09-07T08:18:17.427Z,19.06
2022-09-07T08:20:46.979Z,19.10
2022-09-07T08:23:16.338Z,18.97
2022-09-07T08:25:51.389Z,18.83
2022-09-07T08:28:19.047Z,19.12
2022-09-07T08:30:46.077Z,19.25
2022-09-07T08:33:13.009Z,19.56
2022-09-07T08:35:42.906Z,19.57
2022-09-07T08:38:12.206Z,19.90
2022-09-07T08:40:39.184Z,20.08
2022-09-07T08:43:36.200Z,20.18
2022-09-07T08:46:34.983Z,20.00
2022-09-07T08:49:05.160Z,19.97
2022-09-07T08:52:16.697Z,20.62
2022-09-07T08:54:53.546Z,20.85
2022-09-07T08:57:32.664Z,22.43
2022-09-07T09:00:10.323Z,22.47
2022-09-07T09:02:43.571Z,22.80
2022-09-07T09:05:43.347Z,23.07
2022-09-07T09:08:44.051Z,23.98
2022-09-07T09:11:54.470Z,26.43
2022-09-07T09:15:10.394Z,25.86
2022-09-07T09:17:58.573Z,27.15
2022-09-07T09:20:32.608Z,26.25
2022-09-07T09:23:16.601Z,24.13
2022-09-07T09:25:55.798Z,23.83
2022-09-07T09:28:28.795Z,23.23
2022-09-07T09:31:00.962Z,23.98
2022-09-07T09:33:33.587Z,26.06
2022-09-07T09:36:03.966Z,26.84
2022-09-07T09:38:36.501Z,27.66
2022-09-07T09:41:12.018Z,28.02
2022-09-07T09:43:58.223Z,27.39
2022-09-07T09:46:39.075Z,29.25
2022-09-07T09:49:25.379Z,29.03
2022-09-07T09:54:48.099Z,28.75
2022-09-07T10:01:21.313Z,31.95
2022-09-07T10:06:20.244Z,31.96
2022-09-07T10:09:00.549Z,30.77
2022-09-07T10:12:05.705Z,29.67
2022-09-07T10:14:46.423Z,31.15
2022-09-07T10:17:37.966Z,32.61
2022-09-07T10:20:17.920Z,31.41
2022-09-07T10:22:51.817Z,33.37
2022-09-07T10:25:41.399Z,33.71
2022-09-07T10:28:14.242Z,35.79
2022-09-07T10:31:14.756Z,37.44
2022-09-07T10:34:27.719Z,37.79
2022-09-07T10:37:05.660Z,37.66
2022-09-07T10:40:00.783Z,36.37
2022-09-07T10:43:26.323Z,34.89
2022-09-07T10:53:39.443Z,36.68
2022-09-07T10:56:14.991Z,37.80
2022-09-07T10:59:04.814Z,38.66
2022-09-07T11:02:03.023Z,39.25
2022-09-07T11:05:05.011Z,40.91
2022-09-07T11:08:05.915Z,40.34
2022-09-07T11:11:19.129Z,39.51
2022-09-07T11:14:12.055Z,39.66
2022-09-07T11:16:53.058Z,39.87
2022-09-07T11:19:35.835Z,39.13
2022-09-07T11:22:34.990Z,39.81
2022-09-07T11:25:36.353Z,39.74
2022-09-07T11:28:31.230Z,38.59
2022-09-07T11:31:06.382Z,38.87
2022-09-07T11:36:51.893Z,38.27
2022-09-07T11:39:46.560Z,40.21
2022-09-07T11:42:43.141Z,38.28
2022-09-07T11:45:31.102Z,38.12
2022-09-07T11:48:30.458Z,39.37
2022-09-07T11:51:04.116Z,39.30
2022-09-07T11:53:39.663Z,39.69
2022-09-07T11:56:20.787Z,40.08
2022-09-07T11:59:40.690Z,38.96
2022-09-07T12:02:58.349Z,37.08
2022-09-07T12:05:53.134Z,35.48
2022-09-07T12:09:23.775Z,33.62
2022-09-07T12:12:08.853Z,34.41
2022-09-07T12:15:12.836Z,33.84
2022-09-07T12:17:42.755Z,33.99
2022-09-07T12:20:20.539Z,33.03
2022-09-07T12:23:07.178Z,31.55
2022-09-07T12:25:35.209Z,30.85
2022-09-07T12:28:02.760Z,31.24
2022-09-07T12:30:30.656Z,30.65
2022-09-07T12:32:58.789Z,30.25
2022-09-07T12:35:28.638Z,29.72
2022-09-07T12:38:06.075Z,30.34
2022-09-07T12:40:35.765Z,29.85
2022-09-07T12:43:14.958Z,30.36
2022-09-07T12:45:44.554Z,30.77
2022-09-07T12:48:17.524Z,30.20
2022-09-07T12:54:24.267Z,30.32
2022-09-07T12:57:43.455Z,29.80
2022-09-07T13:00:32.604Z,31.32
2022-09-07T13:09:34.688Z,32.43
2022-09-07T13:16:06.363Z,32.53
2022-09-07T13:18:37.553Z,33.00
2022-09-07T13:21:07.397Z,33.25
2022-09-07T13:23:42.124Z,32.72
2022-09-07T13:27:05.564Z,33.63
2022-09-07T13:29:42.982Z,34.15
2022-09-07T13:32:15.843Z,35.09
2022-09-07T13:35:01.902Z,34.91
2022-09-07T13:37:30.772Z,36.38
2022-09-07T13:39:58.911Z,36.02
2022-09-07T13:42:32.044Z,34.65
2022-09-07T13:45:03.283Z,34.10
2022-09-07T13:47:35.769Z,33.54
2022-09-07T13:50:53.073Z,33.18
2022-09-07T13:53:56.546Z,33.13
2022-09-07T13:56:50.480Z,33.24
2022-09-07T13:59:31.167Z,32.44
2022-09-07T14:01:58.982Z,32.58
2022-09-07T14:04:44.483Z,33.45
2022-09-07T14:07:20.010Z,33.33
2022-09-07T14:09:50.426Z,32.18
2022-09-07T14:12:22.688Z,31.48
2022-09-07T14:15:29.562Z,31.93
2022-09-07T14:18:06.902Z,31.95
2022-09-07T14:20:44.257Z,31.56
2022-09-07T14:23:35.684Z,30.27
2022-09-07T14:26:23.225Z,30.54
2022-09-07T14:28:55.174Z,30.37
2022-09-07T14:31:24.711Z,30.72
2022-09-07T14:33:57.125Z,30.05
2022-09-07T14:36:44.728Z,29.36
2022-09-07T14:39:15.115Z,29.19
2022-09-07T14:41:43.354Z,28.57
2022-09-07T14:44:31.436Z,28.36
2022-09-07T14:47:19.745Z,28.44
2022-09-07T14:49:52.754Z,28.12
2022-09-07T14:52:35.749Z,27.95
2022-09-07T14:55:31.612Z,27.59
2022-09-07T14:58:13.823Z,27.08
2022-09-07T15:00:45.040Z,27.23
2022-09-07T15:03:52.169Z,26.87
2022-09-07T15:09:37.265Z,26.62
2022-09-07T15:12:37.891Z,26.94
2022-09-07T15:15:33.267Z,27.02
2022-09-07T15:18:09.377Z,27.36
2022-09-07T15:20:45.038Z,27.62
2022-09-07T15:23:19.571Z,27.44
2022-09-07T15:25:54.167Z,27.25
2022-09-07T15:34:24.510Z,27.55
2022-09-07T15:36:55.650Z,27.52
2022-09-07T15:39:27.582Z,27.43
2022-09-07T15:41:58.158Z,27.62
2022-09-07T15:44:28.429Z,27.48
2022-09-07T15:49:49.177Z,27.52
2022-09-07T15:52:19.703Z,27.49
2022-09-07T15:54:52.310Z,26.92
2022-09-07T16:00:14.437Z,27.15
2022-09-07T16:05:31.692Z,27.12
2022-09-07T16:10:55.685Z,27.13
2022-09-07T16:13:25.361Z,27.14
2022-09-07T16:15:52.214Z,27.28
2022-09-07T16:18:31.340Z,27.25
2022-09-07T16:21:11.835Z,27.30
2022-09-07T16:23:53.743Z,27.21
2022-09-07T16:26:24.905Z,26.96
2022-09-07T16:29:01.648Z,26.65
2022-09-07T16:34:32.891Z,26.79
2022-09-07T16:36:59.817Z,26.77
2022-09-07T16:39:29.536Z,26.67
2022-09-07T16:42:00.176Z,26.80
2022-09-07T16:44:30.019Z,26.78
2022-09-07T16:46:56.878Z,26.58
2022-09-07T16:49:23.881Z,26.06
2022-09-07T16:51:50.907Z,26.08
2022-09-07T16:54:18.166Z,26.41
2022-09-07T16:56:45.204Z,26.25
2022-09-07T16:59:19.581Z,26.17
2022-09-07T17:01:47.111Z,25.82
2022-09-07T17:04:14.149Z,25.92
2022-09-07T17:06:41.111Z,25.44
2022-09-07T17:09:11.499Z,25.20
2022-09-07T17:11:40.675Z,24.87
2022-09-07T17:14:07.801Z,25.16
2022-09-07T17:16:39.878Z,25.08
2022-09-07T17:22:00.718Z,24.56
2022-09-07T17:24:27.781Z,24.66
2022-09-07T17:26:54.747Z,24.74
2022-09-07T17:29:23.978Z,25.05
2022-09-07T17:34:37.857Z,24.77
2022-09-07T17:37:04.776Z,24.69
2022-09-07T17:39:38.631Z,24.27
2022-09-07T17:42:05.733Z,24.45
2022-09-07T17:44:37.883Z,24.50
2022-09-07T17:47:05.848Z,24.59
2022-09-07T17:49:32.961Z,24.43
2022-09-07T17:52:02.790Z,24.48
2022-09-07T17:54:29.821Z,24.59
2022-09-07T17:56:57.130Z,24.50
2022-09-07T18:02:13.805Z,24.65
2022-09-07T18:04:41.021Z,24.67
2022-09-07T18:07:08.011Z,24.77
2022-09-07T18:09:37.098Z,24.82
2022-09-07T18:12:04.813Z,24.64
2022-09-07T18:14:34.876Z,24.52
2022-09-07T18:17:06.193Z,24.63
2022-09-07T18:19:36.698Z,24.69
2022-09-07T18:24:56.199Z,24.57
2022-09-07T18:27:25.751Z,24.53
2022-09-07T18:29:55.407Z,24.38
2022-09-07T18:32:24.949Z,24.35
2022-09-07T18:34:55.268Z,24.45
2022-09-07T18:37:23.021Z,24.35
2022-09-07T18:39:54.498Z,24.13
2022-09-07T18:42:24.863Z,24.14
2022-09-07T18:47:44.127Z,24.01
2022-09-07T18:50:12.124Z,23.98
2022-09-07T18:52:59.129Z,23.96
2022-09-07T18:55:33.876Z,23.80
2022-09-07T18:58:02.939Z,23.71
2022-09-07T19:00:32.450Z,23.87
2022-09-07T19:02:59.696Z,23.94
2022-09-07T19:08:16.651Z,23.99
2022-09-07T19:10:45.860Z,23.94
2022-09-07T19:13:14.047Z,23.93
2022-09-07T19:15:41.111Z,23.75
2022-09-07T19:18:10.849Z,23.82
2022-09-07T19:20:38.128Z,23.76
2022-09-07T19:23:07.926Z,23.77
2022-09-07T19:25:42.329Z,23.86
2022-09-07T19:28:09.339Z,23.79
2022-09-07T19:30:38.619Z,23.88
2022-09-07T19:33:10.050Z,23.94
2022-09-07T19:35:37.332Z,23.83
2022-09-07T19:38:09.296Z,23.90
2022-09-07T19:40:36.299Z,24.05
2022-09-07T19:43:05.443Z,23.95
2022-09-07T19:45:35.311Z,23.94
2022-09-07T19:48:04.712Z,23.95
2022-09-07T19:50:32.352Z,23.94
2022-09-07T19:53:01.688Z,23.91
2022-09-07T19:55:28.594Z,23.74
2022-09-07T19:57:55.479Z,23.81
2022-09-07T20:00:23.132Z,23.86
2022-09-07T20:02:50.499Z,23.74
2022-09-07T20:05:22.022Z,23.85
2022-09-07T20:07:51.757Z,23.81
2022-09-07T20:10:21.302Z,23.74
2022-09-07T20:12:51.294Z,23.70
2022-09-07T20:15:20.528Z,23.69
2022-09-07T20:17:49.734Z,23.64
2022-09-07T20:20:17.012Z,23.60
2022-09-07T20:22:47.678Z,23.43
2022-09-07T20:25:17.173Z,23.43
2022-09-07T20:27:46.537Z,23.64
2022-09-07T20:30:13.744Z,23.51
2022-09-07T20:32:40.520Z,23.53
2022-09-07T20:35:09.910Z,23.49
2022-09-07T20:37:36.826Z,23.56
2022-09-07T20:40:04.181Z,23.59
2022-09-07T20:42:31.048Z,23.46
2022-09-07T20:45:00.153Z,23.46
2022-09-07T20:47:27.257Z,23.65
2022-09-07T20:49:57.084Z,23.40
2022-09-07T20:52:26.556Z,23.55
2022-09-07T20:54:53.556Z,23.42
2022-09-07T20:57:20.403Z,23.40
2022-09-07T20:59:47.416Z,23.30
2022-09-07T21:02:17.912Z,23.11
2022-09-07T21:04:45.083Z,23.03
2022-09-07T21:07:16.595Z,22.96
2022-09-07T21:09:43.553Z,23.04
2022-09-07T21:12:10.465Z,22.99
2022-09-07T21:14:40.195Z,22.92
2022-09-07T21:17:07.397Z,22.96
2022-09-07T21:19:34.298Z,22.92
2022-09-07T21:22:05.760Z,22.79
2022-09-07T21:24:32.738Z,22.31
2022-09-07T21:26:59.796Z,22.21
2022-09-07T21:29:29.267Z,22.29
2022-09-07T21:31:56.787Z,22.15
2022-09-07T21:34:24.100Z,22.26
2022-09-07T21:36:53.921Z,22.32
2022-09-07T21:39:21.575Z,22.24
2022-09-07T21:41:48.541Z,22.23
2022-09-07T21:44:20.471Z,22.15
2022-09-07T21:46:47.468Z,22.18
2022-09-07T21:49:16.655Z,22.21
2022-09-07T21:51:43.598Z,22.37
2022-09-07T21:54:13.073Z,22.31
2022-09-07T21:56:46.379Z,22.42
2022-09-07T21:59:14.155Z,22.47
2022-09-07T22:01:43.653Z,22.24
2022-09-07T22:04:10.658Z,22.26
2022-09-07T22:06:39.923Z,22.21
2022-09-07T22:09:07.558Z,22.34
2022-09-07T22:11:34.734Z,22.32
2022-09-07T22:14:03.741Z,22.23
2022-09-07T22:16:34.721Z,22.20
2022-09-07T22:19:01.839Z,21.82
2022-09-07T22:21:29.925Z,21.51
2022-09-07T22:24:02.750Z,21.69
2022-09-07T22:26:33.201Z,21.70
2022-09-07T22:29:00.469Z,21.82
2022-09-07T22:31:33.654Z,21.87
2022-09-07T22:34:08.127Z,21.91
2022-09-07T22:36:44.326Z,21.91
2022-09-07T22:39:15.461Z,22.04
2022-09-07T22:41:46.092Z,21.98
2022-09-07T22:44:18.515Z,21.92
2022-09-07T22:46:47.508Z,21.90
2022-09-07T22:49:16.978Z,21.93
2022-09-07T22:51:44.653Z,21.98
2022-09-07T22:54:11.627Z,21.85
2022-09-07T22:56:39.453Z,21.82
2022-09-07T22:59:08.777Z,21.90
2022-09-07T23:01:36.742Z,22.03
2022-09-07T23:04:04.810Z,21.98
2022-09-07T23:06:34.625Z,21.86
2022-09-07T23:09:07.481Z,21.69
2022-09-07T23:11:34.766Z,21.67
2022-09-07T23:14:04.767Z,21.48
2022-09-07T23:16:32.089Z,21.64
2022-09-07T23:19:00.677Z,21.41
2022-09-07T23:21:28.565Z,21.44
2022-09-07T23:24:00.269Z,21.25
2022-09-07T23:26:31.050Z,21.32
2022-09-07T23:29:04.361Z,21.41
2022-09-07T23:31:33.891Z,21.52
2022-09-07T23:34:01.805Z,21.44
2022-09-07T23:36:32.464Z,21.39
2022-09-07T23:39:00.630Z,21.31
2022-09-07T23:41:30.291Z,21.18
2022-09-07T23:44:00.539Z,21.16
2022-09-07T23:46:27.576Z,21.07
2022-09-07T23:48:54.573Z,21.01
2022-09-07T23:51:24.707Z,21.12
2022-09-07T23:53:52.759Z,21.20
2022-09-07T23:56:20.524Z,21.16
2022-09-07T23:58:52.281Z,21.27
